Historyczne dane pomiarowe

Dodano dane terminowe – wersja testowa.

Dane z okresu 1951-2019

Wersja bazy: 1.34 [2019-03-16, lista zmian], aktualizacja planowana na 2019-04-15

Dane meteo z obszaru Polski uzyskane na podstawie danych udostępnionych przez Instytut Meteorologii i Gospodarki Wodnej – Państwowy Instytut Badawczy.

 

Wybierz Datę:    

       

TemperaturaWilgotnośćWiatrCiśnienieOpadyŚniegCzas trwania zjawisk
 Stacja t tx tn tng RH VA  wxwx mslp ppp RRR   cm mm wxwxwxwxwxwxwx
1961-08-14 15.5 19.6 6.3 3.3 69.5- 5.3 2.0---- 3.7------------
1961-08-13 13.3 17.6 10.7 9.5 79.3- 3.7 2.0---- 0.0------------
1961-08-12 17.4 23.0 13.2 10.6 85.5- 7.7 1.7---- 0.0------------
1961-08-11 16.3 19.4 15.1 15.0 96.3- 7.7 1.7---- 6.8------------
1961-08-10 19.0 24.6 14.7 12.1 82.5- 7.3 3.7---- 2.0------------
1961-08-09 19.2 25.9 14.4 11.2 75.8- 5.0 1.3---- 0.0------------
1961-08-08 17.5 21.6 9.6 6.5 71.0- 4.3 2.0---- 0.0------------
1961-08-07 15.0 22.3 13.2 12.1 94.8- 8.0 1.3---- 15.8------------
1961-08-06 23.7 29.8 15.6 11.6 71.3- 3.7 2.0---- 2.3------------
1961-08-05 18.2 23.1 13.6 12.0 81.0- 4.0 2.3---- 0.0------------
1961-08-04 15.5 18.2 7.5 4.5 77.3- 7.7 2.3---- 2.2------------
1961-08-03 13.7 18.3 10.3 10.7 90.5- 5.3 1.3---- 3.7------------
1961-08-02 17.2 23.8 8.6 5.6 82.8- 3.7 1.7---- 10.6------------
1961-08-01 13.8 15.6 11.3 11.3 92.5- 5.7 3.3---- 0.8------------
1961-07-31 13.7 14.4 12.8 12.2 96.5- 8.0 3.3---- 50.4------------
1961-07-30 15.2 18.6 10.8 8.8 82.5- 7.3 1.3---- 2.3------------
1961-07-29 14.2 18.1 11.8 11.6 80.8- 7.3 2.0---- 0.0------------
1961-07-28 15.2 19.2 13.1 9.0 92.0- 8.0 1.7---- 6.0------------
1961-07-27 19.1 24.2 15.2 14.8 73.5- 6.7 3.3---- 0.9------------
1961-07-26 18.5 22.3 12.0 10.4 69.3- 8.0 3.7---- 1.1------------
1961-07-25 14.9 17.7 11.3 9.7 79.8- 7.0 2.3---- 1.0------------
1961-07-24 15.1 19.2 10.9 9.2 78.3- 7.0 2.7---- 0.0------------
1961-07-23 14.4 17.5 12.7 12.4 83.8- 7.0 2.3---- 0.0------------
1961-07-22 15.0 19.7 12.9 13.3 88.3- 7.7 2.3---- 5.5------------
1961-07-21 15.1 18.3 12.0 8.8 90.0- 8.0 2.3---- 7.3------------
1961-07-20 14.9 20.7 9.0 6.7 85.8- 3.3 1.3---- 7.5------------
1961-07-19 14.4 19.6 11.6 10.3 89.3- 5.0 1.3---- 3.0------------
1961-07-18 14.9 19.4 11.7 11.4 90.3- 7.3 1.7---- 7.1------------
1961-07-17 14.9 21.5 8.7 6.0 81.8- 5.0 2.0---- 15.5------------
1961-07-16 13.9 18.2 11.6 8.5 92.3- 8.0 1.3---- 12.4------------
1961-07-15 16.9 23.4 11.6 9.7 72.3- 5.0 2.0---- 2.5------------
1961-07-14 14.3 18.6 13.2 12.6 76.8- 6.3 4.0---- 0.0------------
1961-07-13 21.7 29.7 15.4 12.1 75.8- 4.0 4.0---- 3.1------------
1961-07-12 19.5 24.8 13.9 10.8 74.5- 3.7 2.3---- 0.0------------
1961-07-11 17.4 22.6 10.5 8.5 62.8- 6.3 3.0---- 12.8------------
1961-07-10 13.8 18.7 9.6 7.3 79.0- 7.3 3.3---- 0.0------------
1961-07-09 14.7 20.3 12.1 8.7 77.5- 7.7 2.7---- 1.9------------
1961-07-08 16.6 21.7 8.3 4.0 63.0- 7.7 1.7---- 0.0------------
1961-07-07 13.2 17.0 7.8 4.7 72.8- 7.0 2.0---- 0.0------------
1961-07-06 11.8 15.7 7.6 4.3 80.5- 7.7 2.7---- 0.1------------
1961-07-05 12.4 18.4 10.0 11.0 72.3- 4.3 3.7---- 0.0------------
1961-07-04 17.1 24.3 12.9 11.3 78.5- 6.0 2.7---- 3.3------------
1961-07-03 26.1 33.9 11.6 7.5 49.5- 3.7 2.3---- 1.2------------
1961-07-02 22.3 30.7 7.4 4.2 49.5- 0.0 1.7---- 0.0------------
1961-07-01 20.2 27.7 6.5 2.1 51.3- 2.0 3.0---- 0.0------------
1961-06-30 20.1 27.1 8.2 3.0 58.0- 0.0 3.3---- 0.0------------
1961-06-29 15.3 21.6 11.0 7.2 70.5- 5.0 2.3---- 0.0------------
1961-06-28 15.7 23.8 14.2 14.4 58.3- 5.0 5.7---- 0.0------------
1961-06-27 25.6 32.6 15.2 10.6 58.5- 6.7 4.0---- 0.0------------
1961-06-26 22.1 29.7 11.9 8.0 54.0- 0.7 2.0---- 0.0------------
1961-06-25 21.7 28.9 13.6 9.4 63.3- 7.3 2.7---- 0.0------------
1961-06-24 18.7 23.4 11.6 7.2 60.0- 7.7 3.7---- 0.0------------
1961-06-23 18.3 23.3 11.8 9.7 59.3- 5.0 3.0---- 0.0------------
1961-06-22 17.3 22.2 6.2 3.1 63.5- 4.7 1.3---- 0.0------------
1961-06-21 15.3 22.8 5.9 1.9 69.0- 4.0 2.0---- 1.8------------
1961-06-20 14.4 19.7 8.6 5.7 63.0- 1.3 2.3---- 0.0------------
1961-06-19 17.0 21.9 14.5 14.9 53.5- 4.3 3.7---- 0.0------------
1961-06-18 22.1 27.7 15.2 12.8 58.8- 5.3 2.7---- 0.0------------
1961-06-17 18.0 23.2 7.8 4.2 69.8- 4.7 2.3---- 0.0------------
1961-06-16 12.5 16.5 10.8 10.8 83.5- 5.3 2.3---- 0.0------------
389.7 ms

 

Źródłem pochodzenia danych jest Instytut Meteorologii i Gospodarki Wodnej – Państwowy Instytut Badawczy. Dane Instytutu Meteorologii i Gospodarki Wodnej – Państwowego Instytutu Badawczego zostały przetworzone.

Dane źródłowe można odnaleźć na stronie https://dane.imgw.pl